createdAt,value
2022-11-21T00:02:35.553Z,3.95
2022-11-21T00:05:21.345Z,6.43
2022-11-21T00:08:07.977Z,6.60
2022-11-21T00:10:54.089Z,4.20
2022-11-21T00:13:40.550Z,3.47
2022-11-21T00:16:26.408Z,3.58
2022-11-21T00:19:12.238Z,3.42
2022-11-21T00:21:58.274Z,3.00
2022-11-21T00:24:44.156Z,1.52
2022-11-21T00:27:30.201Z,1.35
2022-11-21T00:30:16.075Z,1.00
2022-11-21T00:33:01.975Z,3.28
2022-11-21T00:35:48.062Z,3.10
2022-11-21T00:38:33.725Z,0.50
2022-11-21T00:41:19.777Z,3.30
2022-11-21T00:44:05.693Z,0.82
2022-11-21T00:46:51.499Z,0.60
2022-11-21T00:49:37.537Z,0.80
2022-11-21T00:52:23.366Z,0.60
2022-11-21T00:55:09.941Z,1.00
2022-11-21T00:57:56.455Z,0.52
2022-11-21T01:00:42.515Z,1.00
2022-11-21T01:03:28.235Z,0.60
2022-11-21T01:06:15.656Z,2.05
2022-11-21T01:09:01.603Z,0.95
2022-11-21T01:11:47.564Z,1.42
2022-11-21T01:14:33.736Z,0.70
2022-11-21T01:17:19.445Z,0.47
2022-11-21T01:20:07.121Z,0.80
2022-11-21T01:22:53.223Z,1.02
2022-11-21T01:25:39.117Z,0.77
2022-11-21T01:28:25.063Z,1.33
2022-11-21T01:31:13.549Z,0.98
2022-11-21T01:34:00.313Z,0.57
2022-11-21T01:36:46.315Z,1.13
2022-11-21T01:39:32.112Z,1.67
2022-11-21T01:42:17.960Z,0.85
2022-11-21T01:45:42.679Z,0.80
2022-11-21T01:48:34.795Z,0.70
2022-11-21T01:51:46.295Z,0.97
2022-11-21T01:54:45.484Z,0.70
2022-11-21T01:57:57.613Z,0.52
2022-11-21T02:00:45.777Z,1.23
2022-11-21T02:03:34.557Z,1.02
2022-11-21T02:06:20.933Z,0.50
2022-11-21T02:09:07.261Z,0.68
2022-11-21T02:11:56.646Z,0.57
2022-11-21T02:14:44.050Z,0.80
2022-11-21T02:17:30.981Z,2.85
2022-11-21T02:20:21.800Z,0.57
2022-11-21T02:23:11.187Z,0.82
2022-11-21T02:25:57.499Z,0.55
2022-11-21T02:28:43.255Z,1.58
2022-11-21T02:31:29.274Z,1.38
2022-11-21T02:34:15.725Z,0.80
2022-11-21T02:37:02.335Z,0.40
2022-11-21T02:39:48.583Z,0.38
2022-11-21T02:42:59.354Z,0.50
2022-11-21T02:45:46.597Z,0.40
2022-11-21T02:48:32.492Z,0.50
2022-11-21T02:51:18.360Z,0.40
2022-11-21T02:54:04.428Z,0.50
2022-11-21T02:56:50.575Z,0.50
2022-11-21T02:59:36.454Z,0.55
2022-11-21T03:02:22.596Z,0.73
2022-11-21T03:05:10.315Z,2.05
2022-11-21T03:07:56.483Z,1.30
2022-11-21T03:10:42.575Z,0.30
2022-11-21T03:13:28.482Z,0.50
2022-11-21T03:16:14.406Z,1.33
2022-11-21T03:19:00.228Z,0.70
2022-11-21T03:21:46.033Z,0.40
2022-11-21T03:24:32.070Z,0.50
2022-11-21T03:27:18.545Z,0.40
2022-11-21T03:30:05.349Z,1.00
2022-11-21T03:32:51.697Z,0.55
2022-11-21T03:35:37.531Z,0.40
2022-11-21T03:38:23.939Z,0.28
2022-11-21T03:41:29.386Z,0.50
2022-11-21T03:44:15.231Z,1.33
2022-11-21T03:47:01.319Z,0.40
2022-11-21T03:49:47.536Z,0.35
2022-11-21T03:52:33.602Z,0.30
2022-11-21T03:55:20.054Z,0.40
2022-11-21T03:58:06.340Z,0.50
2022-11-21T04:00:52.313Z,2.05
2022-11-21T04:03:38.411Z,0.80
2022-11-21T04:06:24.927Z,0.32
2022-11-21T04:09:10.832Z,0.38
2022-11-21T04:11:56.836Z,0.35
2022-11-21T04:14:42.511Z,0.40
2022-11-21T04:17:28.586Z,0.38
2022-11-21T04:20:15.035Z,0.47
2022-11-21T04:23:00.904Z,0.40
2022-11-21T04:25:46.839Z,0.40
2022-11-21T04:28:32.720Z,0.50
2022-11-21T04:31:18.854Z,0.40
2022-11-21T04:34:04.815Z,0.40
2022-11-21T04:36:50.696Z,0.57
2022-11-21T04:39:36.608Z,0.80
2022-11-21T04:42:22.380Z,0.75
2022-11-21T04:45:09.214Z,0.40
2022-11-21T04:47:55.245Z,0.65
2022-11-21T04:50:40.993Z,0.63
2022-11-21T04:53:26.939Z,1.70
2022-11-21T04:56:16.806Z,49.85
2022-11-21T04:59:02.754Z,13.02
2022-11-21T05:01:48.541Z,3.50
2022-11-21T05:04:34.499Z,1.77
2022-11-21T05:07:20.281Z,1.10
2022-11-21T05:10:06.854Z,1.17
2022-11-21T05:13:19.127Z,0.70
2022-11-21T05:16:05.311Z,0.77
2022-11-21T05:18:51.559Z,0.70
2022-11-21T05:21:37.552Z,0.60
2022-11-21T05:24:23.646Z,0.55
2022-11-21T05:27:09.621Z,0.52
2022-11-21T05:29:55.674Z,0.60
2022-11-21T05:32:41.453Z,1.00
2022-11-21T05:35:27.186Z,0.63
2022-11-21T05:38:13.312Z,1.70
2022-11-21T05:40:59.372Z,0.60
2022-11-21T05:43:48.099Z,0.68
2022-11-21T05:46:34.261Z,0.60
2022-11-21T05:49:20.207Z,1.35
2022-11-21T05:52:06.005Z,1.10
2022-11-21T05:54:51.875Z,1.02
2022-11-21T05:57:37.715Z,0.52
2022-11-21T06:00:23.530Z,1.05
2022-11-21T06:03:28.085Z,0.70
2022-11-21T06:06:18.579Z,1.42
2022-11-21T06:09:07.430Z,0.68
2022-11-21T06:11:53.487Z,2.10
2022-11-21T06:14:39.373Z,1.55
2022-11-21T06:17:25.466Z,1.35
2022-11-21T06:20:11.719Z,1.20
2022-11-21T06:22:57.874Z,1.55
2022-11-21T06:25:44.245Z,4.15
2022-11-21T06:28:38.358Z,3.22
2022-11-21T06:31:26.197Z,3.95
2022-11-21T06:34:12.421Z,6.15
2022-11-21T06:36:58.372Z,2.05
2022-11-21T06:39:44.136Z,1.67
2022-11-21T06:42:30.043Z,1.85
2022-11-21T06:45:16.085Z,3.75
2022-11-21T06:48:03.446Z,2.65
2022-11-21T06:50:49.489Z,3.08
2022-11-21T06:53:35.426Z,1.60
2022-11-21T06:56:22.204Z,1.38
2022-11-21T06:59:08.423Z,2.47
2022-11-21T07:01:54.185Z,1.60
2022-11-21T07:04:40.428Z,1.10
2022-11-21T07:07:26.638Z,1.58
2022-11-21T07:10:12.772Z,1.20
2022-11-21T07:13:18.435Z,1.38
2022-11-21T07:16:10.707Z,2.08
2022-11-21T07:18:56.507Z,2.55
2022-11-21T07:21:43.195Z,1.17
2022-11-21T07:24:29.240Z,5.05
2022-11-21T07:27:15.287Z,3.35
2022-11-21T07:30:01.095Z,3.97
2022-11-21T07:32:46.999Z,2.05
2022-11-21T07:35:34.083Z,1.38
2022-11-21T07:38:19.928Z,1.52
2022-11-21T07:41:06.239Z,1.85
2022-11-21T07:43:52.188Z,1.77
2022-11-21T07:46:38.000Z,2.05
2022-11-21T07:49:24.035Z,1.17
2022-11-21T07:52:09.818Z,1.15
2022-11-21T07:54:56.474Z,1.60
2022-11-21T07:57:42.857Z,1.77
2022-11-21T08:00:29.895Z,1.33
2022-11-21T08:03:16.031Z,3.05
2022-11-21T08:06:06.393Z,1.83
2022-11-21T08:08:55.415Z,1.55
2022-11-21T08:11:41.624Z,1.80
2022-11-21T08:14:27.830Z,1.40
2022-11-21T08:17:14.220Z,2.22
2022-11-21T08:20:00.787Z,1.35
2022-11-21T08:22:46.834Z,4.03
2022-11-21T08:25:34.263Z,1.25
2022-11-21T08:28:20.399Z,2.03
2022-11-21T08:31:07.029Z,2.20
2022-11-21T08:33:56.981Z,1.98
2022-11-21T08:36:42.914Z,2.53
2022-11-21T08:39:31.094Z,2.83
2022-11-21T08:42:17.522Z,2.85
2022-11-21T08:45:06.028Z,2.15
2022-11-21T08:47:52.657Z,1.77
2022-11-21T08:50:39.160Z,1.98
2022-11-21T08:53:25.513Z,1.45
2022-11-21T08:56:11.376Z,1.50
2022-11-21T08:58:57.648Z,1.38
2022-11-21T09:01:44.154Z,1.00
2022-11-21T09:04:30.321Z,1.80
2022-11-21T09:07:16.775Z,1.45
2022-11-21T09:10:02.840Z,2.45
2022-11-21T09:12:48.642Z,1.52
2022-11-21T09:15:53.139Z,1.50
2022-11-21T09:18:39.322Z,4.22
2022-11-21T09:21:25.188Z,2.22
2022-11-21T09:24:11.382Z,2.03
2022-11-21T09:26:57.350Z,3.15
2022-11-21T09:29:45.812Z,1.42
2022-11-21T09:32:35.930Z,2.30
2022-11-21T09:35:22.024Z,1.63
2022-11-21T09:38:07.895Z,1.67
2022-11-21T09:41:00.644Z,2.47
2022-11-21T09:46:47.284Z,1.50
2022-11-21T09:49:40.717Z,1.42
2022-11-21T09:52:38.633Z,2.30
2022-11-21T09:55:47.262Z,1.08
2022-11-21T09:58:42.720Z,2.97
2022-11-21T10:01:29.825Z,3.13
2022-11-21T10:04:16.097Z,1.02
2022-11-21T10:07:10.400Z,2.45
2022-11-21T10:09:59.457Z,1.20
2022-11-21T10:13:10.184Z,1.10
2022-11-21T10:16:17.556Z,2.60
2022-11-21T10:19:24.701Z,1.25
2022-11-21T10:22:43.215Z,0.95
2022-11-21T10:25:35.004Z,0.70
2022-11-21T10:28:28.272Z,0.80
2022-11-21T10:31:15.574Z,1.30
2022-11-21T10:34:03.302Z,0.80
2022-11-21T10:36:52.930Z,2.20
2022-11-21T10:39:44.175Z,0.70
2022-11-21T10:42:36.018Z,0.82
2022-11-21T10:45:23.035Z,0.80
2022-11-21T10:48:09.098Z,0.80
2022-11-21T10:51:13.643Z,1.15
2022-11-21T10:54:30.308Z,1.10
2022-11-21T10:57:20.050Z,1.70
2022-11-21T11:00:15.003Z,0.68
2022-11-21T11:03:05.244Z,1.00
2022-11-21T11:05:59.361Z,1.05
2022-11-21T11:08:52.919Z,3.25
2022-11-21T11:11:39.138Z,1.45
2022-11-21T11:14:31.147Z,1.98
2022-11-21T11:17:17.319Z,3.70
2022-11-21T11:20:28.112Z,1.85
2022-11-21T11:23:20.255Z,1.15
2022-11-21T11:26:41.125Z,1.10
2022-11-21T11:29:32.320Z,1.20
2022-11-21T11:32:21.602Z,4.43
2022-11-21T11:35:17.251Z,3.35
2022-11-21T11:38:03.939Z,0.70
2022-11-21T11:40:50.325Z,0.98
2022-11-21T11:44:13.797Z,1.73
2022-11-21T11:50:13.256Z,3.72
2022-11-21T11:53:11.398Z,1.00
2022-11-21T11:56:03.640Z,1.05
2022-11-21T11:59:10.090Z,1.83
2022-11-21T12:02:01.056Z,2.72
2022-11-21T12:05:02.305Z,1.58
2022-11-21T12:11:57.716Z,2.13
2022-11-21T12:15:21.010Z,2.88
2022-11-21T12:18:16.291Z,3.40
2022-11-21T12:21:11.667Z,2.28
2022-11-21T12:23:58.510Z,3.15
2022-11-21T12:27:11.691Z,1.88
2022-11-21T12:30:09.429Z,3.28
2022-11-21T12:33:24.878Z,6.22
2022-11-21T12:36:18.820Z,7.35
2022-11-21T12:39:09.592Z,6.20
2022-11-21T12:42:50.944Z,11.57
2022-11-21T12:45:39.461Z,10.23
2022-11-21T12:49:21.539Z,8.25
2022-11-21T12:52:41.217Z,12.38
2022-11-21T12:55:40.965Z,18.98
2022-11-21T12:58:37.195Z,11.18
2022-11-21T13:01:53.686Z,12.63
2022-11-21T13:04:41.478Z,9.52
2022-11-21T13:07:32.491Z,11.13
2022-11-21T13:10:18.595Z,10.73
2022-11-21T13:13:17.341Z,7.57
2022-11-21T13:16:10.412Z,9.77
2022-11-21T13:18:56.388Z,9.57
2022-11-21T13:21:48.769Z,9.07
2022-11-21T13:24:47.987Z,9.43
2022-11-21T13:27:41.731Z,10.15
2022-11-21T13:30:27.847Z,17.63
2022-11-21T13:33:36.136Z,17.13
2022-11-21T13:36:28.682Z,13.57
2022-11-21T13:39:17.753Z,25.13
2022-11-21T13:42:23.270Z,13.98
2022-11-21T13:45:40.954Z,12.80
2022-11-21T13:48:59.619Z,7.22
2022-11-21T13:51:55.463Z,7.20
2022-11-21T13:54:59.852Z,8.43
2022-11-21T13:58:01.118Z,15.07
2022-11-21T14:01:12.434Z,16.55
2022-11-21T14:04:16.503Z,12.70
2022-11-21T14:07:28.495Z,17.98
2022-11-21T14:10:31.262Z,16.40
2022-11-21T14:13:34.949Z,15.80
2022-11-21T14:16:28.366Z,12.18
2022-11-21T14:19:19.178Z,11.70
2022-11-21T14:22:05.471Z,17.92
2022-11-21T14:24:52.484Z,18.38
2022-11-21T14:27:45.166Z,13.68
2022-11-21T14:30:34.992Z,17.92
2022-11-21T14:33:26.147Z,35.50
2022-11-21T14:36:21.878Z,13.13
2022-11-21T14:42:22.438Z,10.00
2022-11-21T14:45:16.194Z,24.98
2022-11-21T14:48:02.036Z,21.15
2022-11-21T14:50:48.050Z,38.03
2022-11-21T14:53:34.057Z,32.35
2022-11-21T14:56:28.571Z,23.52
2022-11-21T14:59:22.850Z,30.75
2022-11-21T15:02:20.451Z,15.80
2022-11-21T15:05:08.276Z,15.45
2022-11-21T15:08:10.453Z,28.45
2022-11-21T15:11:01.420Z,18.85
2022-11-21T15:16:56.470Z,10.32
2022-11-21T15:19:42.851Z,20.27
2022-11-21T15:22:34.357Z,26.02
2022-11-21T15:25:22.675Z,17.77
2022-11-21T15:28:14.569Z,16.65
2022-11-21T15:31:19.712Z,12.88
2022-11-21T15:34:33.878Z,9.27
2022-11-21T15:37:16.478Z,6.93
2022-11-21T15:40:02.478Z,5.10
2022-11-21T15:42:50.508Z,5.18
2022-11-21T15:45:36.574Z,9.63
2022-11-21T15:48:23.038Z,7.15
2022-11-21T15:51:10.982Z,8.32
2022-11-21T15:53:57.173Z,8.25
2022-11-21T15:56:43.266Z,7.15
2022-11-21T15:59:29.726Z,7.85
2022-11-21T16:02:16.082Z,10.38
2022-11-21T16:05:02.193Z,12.40
2022-11-21T16:07:48.780Z,9.68
2022-11-21T16:10:36.238Z,9.07
2022-11-21T16:13:22.059Z,7.45
2022-11-21T16:16:11.615Z,12.40
2022-11-21T16:18:58.417Z,15.70
2022-11-21T16:21:44.669Z,14.50
2022-11-21T16:24:31.254Z,15.55
2022-11-21T16:27:17.408Z,20.33
2022-11-21T16:30:04.122Z,20.70
2022-11-21T16:32:51.300Z,22.77
2022-11-21T16:35:40.588Z,23.75
2022-11-21T16:38:28.490Z,28.77
2022-11-21T16:41:17.193Z,33.28
2022-11-21T16:44:03.341Z,25.73
2022-11-21T16:46:51.666Z,27.85
2022-11-21T16:49:45.038Z,25.98
2022-11-21T16:52:35.744Z,18.13
2022-11-21T16:55:21.965Z,12.27
2022-11-21T16:58:08.035Z,12.63
2022-11-21T17:00:54.112Z,7.95
2022-11-21T17:03:40.768Z,11.23
2022-11-21T17:06:29.472Z,13.02
2022-11-21T17:09:16.610Z,16.13
2022-11-21T17:12:02.544Z,10.13
2022-11-21T17:14:48.547Z,10.88
2022-11-21T17:17:37.668Z,11.15
2022-11-21T17:20:23.784Z,12.60
2022-11-21T17:23:09.899Z,14.38
2022-11-21T17:25:55.926Z,25.20
2022-11-21T17:28:45.578Z,35.97
2022-11-21T17:31:32.576Z,25.50
2022-11-21T17:34:18.578Z,22.27
2022-11-21T17:37:04.495Z,18.25
2022-11-21T17:39:50.501Z,26.45
2022-11-21T17:42:36.566Z,20.13
2022-11-21T17:45:22.325Z,20.45
2022-11-21T17:48:08.221Z,20.67
2022-11-21T17:51:03.980Z,18.17
2022-11-21T17:53:51.151Z,17.98
2022-11-21T17:56:45.096Z,17.25
2022-11-21T17:59:34.787Z,20.20
2022-11-21T18:02:22.483Z,20.00
2022-11-21T18:05:08.559Z,17.48
2022-11-21T18:07:54.838Z,21.63
2022-11-21T18:10:43.770Z,17.70
2022-11-21T18:13:30.875Z,17.63
2022-11-21T18:16:21.832Z,17.83
2022-11-21T18:19:13.142Z,14.57
2022-11-21T18:21:59.452Z,11.63
2022-11-21T18:24:45.511Z,11.80
2022-11-21T18:27:31.437Z,18.48
2022-11-21T18:30:17.495Z,15.10
2022-11-21T18:33:04.004Z,13.50
2022-11-21T18:35:49.886Z,12.93
2022-11-21T18:38:49.317Z,16.80
2022-11-21T18:41:38.449Z,14.50
2022-11-21T18:44:24.652Z,16.33
2022-11-21T18:47:19.987Z,11.18
2022-11-21T18:50:07.461Z,15.00
2022-11-21T18:52:53.690Z,22.13
2022-11-21T18:55:39.703Z,15.43
2022-11-21T18:58:26.711Z,17.27
2022-11-21T19:01:23.519Z,17.13
2022-11-21T19:04:09.851Z,22.45
2022-11-21T19:06:56.236Z,31.52
2022-11-21T19:09:42.006Z,36.08
2022-11-21T19:12:28.084Z,35.97
2022-11-21T19:15:14.067Z,31.13
2022-11-21T19:17:59.933Z,40.22
2022-11-21T19:20:45.857Z,35.83
2022-11-21T19:23:32.389Z,40.58
2022-11-21T19:26:21.568Z,37.80
2022-11-21T19:29:07.994Z,39.58
2022-11-21T19:31:54.332Z,41.25
2022-11-21T19:34:40.191Z,38.95
2022-11-21T19:37:26.233Z,42.33
2022-11-21T19:40:13.180Z,31.60
2022-11-21T19:42:58.995Z,52.20
2022-11-21T19:45:44.948Z,34.90
2022-11-21T19:48:31.255Z,24.35
2022-11-21T19:51:18.023Z,36.50
2022-11-21T19:54:05.776Z,37.33
2022-11-21T19:56:51.771Z,42.05
2022-11-21T19:59:38.333Z,27.70
2022-11-21T20:02:26.624Z,27.08
2022-11-21T20:05:12.496Z,29.60
2022-11-21T20:08:03.809Z,23.58
2022-11-21T20:10:52.301Z,21.02
2022-11-21T20:13:43.540Z,19.02
2022-11-21T20:16:36.308Z,20.65
2022-11-21T20:19:24.296Z,23.17
2022-11-21T20:22:10.688Z,21.25
2022-11-21T20:24:57.322Z,17.90
2022-11-21T20:27:43.497Z,19.38
2022-11-21T20:30:29.713Z,16.75
2022-11-21T20:36:21.527Z,16.55
2022-11-21T20:39:18.768Z,25.58
2022-11-21T20:42:04.610Z,19.88
2022-11-21T20:45:54.320Z,26.92
2022-11-21T20:47:56.770Z,25.50
2022-11-21T20:53:55.189Z,21.33
2022-11-21T20:56:44.525Z,22.45
2022-11-21T20:59:30.736Z,19.05
2022-11-21T21:02:17.086Z,16.10
2022-11-21T21:05:02.821Z,16.75
2022-11-21T21:07:48.954Z,19.08
2022-11-21T21:10:58.264Z,18.13
2022-11-21T21:13:43.306Z,17.90
2022-11-21T21:16:34.482Z,22.98
2022-11-21T21:19:21.551Z,19.45
2022-11-21T21:22:09.028Z,28.35
2022-11-21T21:24:54.979Z,18.65
2022-11-21T21:27:40.829Z,19.27
2022-11-21T21:30:26.744Z,21.02
2022-11-21T21:33:13.959Z,21.45
2022-11-21T21:36:15.295Z,20.20
2022-11-21T21:39:02.258Z,23.20
2022-11-21T21:41:48.290Z,28.23
2022-11-21T21:44:34.477Z,24.63
2022-11-21T21:47:21.379Z,22.48
2022-11-21T21:50:14.407Z,22.27
2022-11-21T21:53:01.497Z,17.95
2022-11-21T21:55:47.454Z,25.13
2022-11-21T21:58:38.969Z,36.55
2022-11-21T22:01:30.380Z,33.78
2022-11-21T22:04:16.690Z,37.47
2022-11-21T22:07:03.443Z,55.80
2022-11-21T22:09:49.594Z,56.28
2022-11-21T22:12:37.842Z,49.55
2022-11-21T22:15:27.099Z,45.42
2022-11-21T22:18:12.927Z,37.65
2022-11-21T22:20:58.822Z,65.90
2022-11-21T22:24:09.300Z,45.55
2022-11-21T22:26:51.098Z,28.33
2022-11-21T22:29:36.953Z,32.53
2022-11-21T22:32:22.942Z,26.35
2022-11-21T22:35:08.816Z,26.13
2022-11-21T22:37:55.076Z,26.45
2022-11-21T22:40:40.957Z,27.52
2022-11-21T22:43:26.872Z,26.52
2022-11-21T22:46:13.201Z,23.50
2022-11-21T22:48:59.417Z,17.13
2022-11-21T22:51:45.493Z,16.50
2022-11-21T22:54:31.872Z,16.52
2022-11-21T22:57:19.249Z,13.48
2022-11-21T23:00:07.081Z,19.23
2022-11-21T23:02:53.326Z,18.10
2022-11-21T23:05:39.153Z,15.18
2022-11-21T23:08:25.266Z,15.82
2022-11-21T23:11:13.905Z,16.67
2022-11-21T23:13:59.989Z,22.00
2022-11-21T23:16:45.871Z,16.50
2022-11-21T23:19:32.048Z,16.00
2022-11-21T23:22:18.371Z,13.85
2022-11-21T23:25:04.493Z,16.48
2022-11-21T23:27:50.905Z,16.13
2022-11-21T23:30:37.241Z,17.23
2022-11-21T23:33:23.719Z,17.73
2022-11-21T23:36:09.980Z,16.67
2022-11-21T23:38:56.066Z,20.83
2022-11-21T23:41:42.339Z,18.30
2022-11-21T23:44:28.369Z,16.75
2022-11-21T23:47:14.227Z,20.58
2022-11-21T23:50:00.264Z,20.20
2022-11-21T23:52:47.529Z,19.83
2022-11-21T23:55:33.334Z,19.48
2022-11-21T23:58:19.304Z,21.23
